Carroll, Maryland
Current Conditions -  °F | °C
As of 1:54 PM on Monday 20 Oct 2014 (Local Time) from KBWI Reporting Station
Broken Clouds Broken Clouds  
Wind Chill: 64°   Ceiling: 20000
Heat Index: 64°   Visibility: 10mi
Dew Point: 41°   Wind: 8mph
Humidity: 43%   Direction: 210°SSW
Pressure: 29.99"   Gusts: NA
Location:  39.2853°N, 76.6905°W
Report Text: KBWI 201754Z 21007KT 10SM SCT160 BKN200 18/05 A2999 RMK AO2 SLP154 T01780050 10178 20039 56042
Loading
Personal Weather Stations






























Interactive Weather Map
Tropical Storm Tracking
New forecast layout! Learn more

10-Day Weather Forecast

Advertisements
Track Severe Weather on mobile